Time;durP1;ratioP1;P1;durP2;ratioP2;P2;SDS_P1;SDS_P2;PMS_P1;PMS_P2;Temp;Humidity;BMP_temperature;BMP_pressure;BME280_temperature;BME280_humidity;BME280_pressure;Samples;Min_cycle;Max_cycle;Signal;HPM_P1;HPM_P2
2020/12/29 00:00:28;;;;;;;3.03;1.80;;;;;;;7.17;85.00;96627.69;4933982;29;20082;-69
2020/12/29 00:02:55;;;;;;;3.90;2.05;;;;;;;7.34;83.33;96620.28;4933907;29;20067;-68
2020/12/29 00:05:23;;;;;;;3.22;1.70;;;;;;;7.36;83.37;96628.66;4933876;29;20450;-69
2020/12/29 00:10:22;;;;;;;2.95;1.73;;;;;;;7.24;84.15;96639.25;4933737;29;20048;-68
2020/12/29 00:12:50;;;;;;;5.47;2.03;;;;;;;7.33;83.23;96628.78;4933771;29;20044;-69
2020/12/29 00:15:18;;;;;;;5.28;2.25;;;;;;;7.30;83.97;96623.81;4933815;29;20549;-69
2020/12/29 00:17:45;;;;;;;3.80;2.33;;;;;;;7.24;84.32;96645.16;4936008;29;20039;-68
2020/12/29 00:20:14;;;;;;;3.58;1.95;;;;;;;7.20;84.28;96613.19;4937062;29;20134;-70
2020/12/29 00:22:41;;;;;;;5.30;2.10;;;;;;;7.17;85.30;96617.56;4937147;29;20147;-70
2020/12/29 00:25:11;;;;;;;3.70;1.83;;;;;;;7.20;85.18;96628.38;4921304;29;20443;-69
2020/12/29 00:27:39;;;;;;;2.50;1.60;;;;;;;7.13;85.96;96600.78;4937061;29;20516;-68
2020/12/29 00:30:06;;;;;;;2.60;1.33;;;;;;;7.18;85.08;96603.97;4936897;29;20464;-70
2020/12/29 00:32:37;;;;;;;4.85;1.83;;;;;;;7.36;84.56;96619.34;4963768;28;20038;-68
2020/12/29 00:35:05;;;;;;;1.65;1.13;;;;;;;7.44;84.09;96597.03;4996831;28;20070;-68
2020/12/29 00:37:33;;;;;;;3.13;1.70;;;;;;;7.24;84.05;96579.22;4996657;28;20105;-69
2020/12/29 00:40:00;;;;;;;3.65;1.13;;;;;;;7.37;85.36;96610.84;4996769;28;20501;-68
2020/12/29 00:42:33;;;;;;;4.55;1.60;;;;;;;7.43;84.51;96604.72;4996542;28;20104;-69
2020/12/29 00:45:01;;;;;;;2.67;1.40;;;;;;;7.40;84.70;96609.91;4996742;28;20117;-69
2020/12/29 00:47:29;;;;;;;3.25;1.60;;;;;;;7.40;84.09;96618.34;4996593;28;20042;-69
2020/12/29 00:49:57;;;;;;;2.47;1.30;;;;;;;7.31;84.82;96611.09;4996559;28;20054;-68
2020/12/29 00:52:24;;;;;;;3.83;1.70;;;;;;;7.36;85.20;96588.09;4979129;28;20050;-69
2020/12/29 00:55:00;;;;;;;4.65;1.75;;;;;;;7.45;85.12;96597.88;4995317;28;20056;-68
2020/12/29 00:57:41;;;;;;;3.40;1.60;;;;;;;7.48;84.39;96597.78;5011644;28;20116;-68
2020/12/29 01:00:09;;;;;;;3.60;1.83;;;;;;;7.48;83.84;96597.78;4996415;28;20058;-68
2020/12/29 01:02:56;;;;;;;2.90;1.58;;;;;;;7.39;85.14;96619.22;4996384;28;20101;-69
2020/12/29 01:05:23;;;;;;;3.05;1.55;;;;;;;7.33;85.33;96601.72;4996224;28;20550;-69
2020/12/29 01:07:51;;;;;;;3.67;1.50;;;;;;;7.37;85.26;96604.94;4978933;28;20535;-68
2020/12/29 01:10:20;;;;;;;3.03;1.73;;;;;;;7.37;85.05;96597.31;4996004;28;20085;-68
2020/12/29 01:13:09;;;;;;;2.75;1.65;;;;;;;7.34;85.63;96584.78;4992867;28;20050;-69
2020/12/29 01:15:40;;;;;;;6.15;2.22;;;;;;;7.22;86.04;96600.47;5011575;28;20054;-68
2020/12/29 01:18:08;;;;;;;4.57;2.67;;;;;;;7.21;86.26;96583.56;4995982;28;20121;-68
2020/12/29 01:20:36;;;;;;;4.60;1.55;;;;;;;7.20;86.94;96586.97;4996046;28;20096;-69
2020/12/29 01:23:06;;;;;;;2.63;1.60;;;;;;;7.15;86.71;96578.75;4995925;28;20137;-69
2020/12/29 01:25:33;;;;;;;4.60;2.30;;;;;;;7.29;86.54;96579.06;4995959;28;20092;-69
2020/12/29 01:28:01;;;;;;;4.43;2.33;;;;;;;7.25;86.98;96590.19;4995699;28;20515;-69
2020/12/29 01:30:29;;;;;;;4.07;2.25;;;;;;;7.13;86.55;96580.50;4995725;28;20046;-69
2020/12/29 01:32:58;;;;;;;3.08;1.83;;;;;;;7.25;86.59;96574.97;4995806;28;20109;-68
2020/12/29 01:35:25;;;;;;;3.95;2.25;;;;;;;7.31;86.19;96584.91;4974840;28;20039;-69
2020/12/29 01:37:53;;;;;;;3.75;2.15;;;;;;;7.31;85.91;96562.06;4976561;28;20512;-69
2020/12/29 01:40:21;;;;;;;5.63;1.65;;;;;;;7.31;85.82;96595.03;4976117;28;20049;-69
2020/12/29 01:42:49;;;;;;;4.40;2.45;;;;;;;7.27;85.93;96588.44;4976165;28;20097;-69
2020/12/29 01:45:18;;;;;;;2.85;1.52;;;;;;;7.29;86.35;96589.19;4976089;28;20076;-69
2020/12/29 01:47:48;;;;;;;3.65;1.83;;;;;;;7.25;85.87;96590.19;4976094;28;20043;-69
2020/12/29 01:50:16;;;;;;;;;;;;;;;7.18;86.27;96611.56;4976437;28;20138;-69
2020/12/29 01:52:45;;;;;;;4.53;2.53;;;;;;;7.14;87.03;96617.66;4975948;28;19929;-70
2020/12/29 01:55:13;;;;;;;3.35;1.70;;;;;;;7.14;86.32;96597.38;4976039;28;20053;-69
2020/12/29 01:57:41;;;;;;;3.90;1.42;;;;;;;7.19;85.45;96577.75;4976183;28;20493;-70
2020/12/29 02:00:10;;;;;;;2.60;1.38;;;;;;;7.21;84.93;96568.38;4975864;28;20101;-69
2020/12/29 02:02:41;;;;;;;4.53;1.48;;;;;;;7.19;85.53;96577.75;4974731;28;20046;-70
2020/12/29 02:05:10;;;;;;;4.90;2.20;;;;;;;7.09;85.84;96579.78;4976015;28;20444;-70
2020/12/29 02:07:39;;;;;;;3.83;1.90;;;;;;;7.06;86.47;96591.75;4975699;28;20076;-70
2020/12/29 02:10:07;;;;;;;3.00;1.50;;;;;;;7.03;87.19;96585.06;4975723;28;20046;-70
2020/12/29 02:12:36;;;;;;;3.08;1.75;;;;;;;7.05;86.97;96592.66;4975419;28;20054;-68
2020/12/29 02:15:06;;;;;;;3.60;2.13;;;;;;;7.07;86.73;96601.84;4975608;28;20047;-69
2020/12/29 02:17:34;;;;;;;2.97;1.88;;;;;;;7.06;87.16;96594.28;4975687;28;20571;-70
2020/12/29 02:20:03;;;;;;;3.10;1.65;;;;;;;7.05;86.81;96590.94;4975523;28;20087;-70
2020/12/29 02:22:32;;;;;;;3.72;2.05;;;;;;;6.97;86.46;96580.25;4975492;28;20047;-70
2020/12/29 02:25:01;;;;;;;3.33;1.42;;;;;;;7.08;86.19;96590.00;4975307;28;20129;-69
2020/12/29 02:27:30;;;;;;;2.17;1.10;;;;;;;7.08;85.27;96592.53;4975394;28;20050;-70
2020/12/29 02:29:59;;;;;;;2.85;1.40;;;;;;;7.01;85.53;96604.59;4975670;28;20418;-70
2020/12/29 02:32:27;;;;;;;2.90;1.70;;;;;;;6.95;85.99;96604.81;4975200;28;20059;-70
2020/12/29 02:34:55;;;;;;;3.35;1.92;;;;;;;6.92;86.78;96606.63;4986010;28;20054;-69
2020/12/29 02:37:23;;;;;;;4.15;2.30;;;;;;;6.91;86.71;96615.13;4993293;28;20046;-70
2020/12/29 02:39:53;;;;;;;4.78;2.28;;;;;;;6.86;86.90;96611.94;4994177;28;20045;-71
2020/12/29 02:42:22;;;;;;;4.10;1.98;;;;;;;6.80;87.82;96618.03;4994491;28;20445;-70
2020/12/29 02:44:49;;;;;;;4.38;2.50;;;;;;;6.78;87.99;96613.91;4994536;28;20051;-71
2020/12/29 02:47:17;;;;;;;4.47;2.00;;;;;;;6.75;88.15;96615.66;4994500;28;20042;-71
2020/12/29 02:49:45;;;;;;;5.45;1.98;;;;;;;6.72;88.51;96630.97;4994410;28;20050;-70
2020/12/29 02:52:12;;;;;;;3.75;2.17;;;;;;;6.72;88.47;96628.44;4994370;28;20046;-69
2020/12/29 02:54:40;;;;;;;4.50;2.58;;;;;;;6.71;88.50;96629.31;4994236;28;20499;-69
2020/12/29 02:57:10;;;;;;;3.75;1.98;;;;;;;6.68;88.85;96624.34;4994348;28;20046;-70
2020/12/29 02:59:37;;;;;;;7.10;2.83;;;;;;;6.62;88.59;96644.81;4977262;28;20046;-70
2020/12/29 03:02:05;;;;;;;2.97;1.83;;;;;;;6.56;88.58;96650.13;4994550;28;20492;-70
2020/12/29 03:04:32;;;;;;;3.72;2.08;;;;;;;6.50;88.71;96652.84;4994273;28;20445;-71
2020/12/29 03:07:00;;;;;;;4.90;2.58;;;;;;;6.43;88.74;96658.97;4994091;28;20074;-70
2020/12/29 03:09:28;;;;;;;3.28;1.50;;;;;;;6.41;88.94;96670.88;4994243;28;20492;-70
2020/12/29 03:11:56;;;;;;;4.47;2.10;;;;;;;6.36;89.03;96667.66;4994020;28;20043;-70
2020/12/29 03:14:25;;;;;;;6.07;3.08;;;;;;;6.32;88.89;96686.38;4994160;28;20042;-70
2020/12/29 03:16:52;;;;;;;5.65;1.85;;;;;;;6.12;89.25;96658.31;4994105;28;20054;-70
2020/12/29 03:19:22;;;;;;;;;;;;;;;6.29;88.99;96701.66;4994450;28;20108;-70
2020/12/29 03:21:50;;;;;;;3.65;1.83;;;;;;;6.26;89.18;96711.91;5009211;28;20380;-70
2020/12/29 03:24:18;;;;;;;6.47;2.67;;;;;;;6.14;89.11;96696.25;4992903;28;20518;-70
2020/12/29 03:26:46;;;;;;;4.80;2.08;;;;;;;6.22;88.65;96715.38;4994052;28;20108;-70
2020/12/29 03:29:13;;;;;;;4.88;2.22;;;;;;;6.22;88.81;96733.09;4993991;28;20050;-70
2020/12/29 03:31:44;;;;;;;3.88;1.80;;;;;;;6.17;88.76;96747.59;4993853;28;20518;-70
2020/12/29 03:34:17;;;;;;;3.97;2.00;;;;;;;6.08;88.62;96747.91;4993776;28;20050;-70
2020/12/29 03:36:45;;;;;;;2.33;1.50;;;;;;;5.99;88.68;96743.13;4994192;28;20057;-70
2020/12/29 03:39:13;;;;;;;3.13;1.42;;;;;;;5.86;88.41;96755.28;4993941;28;20165;-71
2020/12/29 03:41:41;;;;;;;3.80;1.67;;;;;;;5.73;88.32;96771.69;4992630;28;20061;-70
2020/12/29 03:44:08;;;;;;;3.30;1.60;;;;;;;5.69;88.03;96779.38;4994211;28;20070;-70
2020/12/29 03:46:36;;;;;;;2.63;1.30;;;;;;;5.61;87.86;96793.97;4993840;28;20042;-71
2020/12/29 03:49:05;;;;;;;2.35;1.30;;;;;;;5.36;87.73;96771.88;4993846;28;20132;-70
2020/12/29 03:51:32;;;;;;;2.30;1.02;;;;;;;5.52;87.23;96832.16;4995049;28;20046;-71
2020/12/29 03:54:00;;;;;;;3.00;1.30;;;;;;;5.45;87.31;96835.72;4997569;28;20431;-71
2020/12/29 03:56:28;;;;;;;2.45;1.40;;;;;;;5.39;87.04;96852.72;4997586;28;20519;-71
2020/12/29 03:58:56;;;;;;;3.42;1.70;;;;;;;5.33;87.17;96885.72;4997490;28;20045;-71
2020/12/29 04:01:24;;;;;;;5.20;2.60;;;;;;;5.10;86.66;96903.16;4997384;28;20496;-70
2020/12/29 04:03:52;;;;;;;4.80;2.50;;;;;;;4.84;85.69;96910.53;4997408;28;20043;-71
2020/12/29 04:06:20;;;;;;;5.97;2.80;;;;;;;4.73;85.31;96930.13;4997348;28;20091;-71
2020/12/29 04:08:48;;;;;;;4.97;3.10;;;;;;;4.60;85.35;96943.88;4997105;28;20084;-71
2020/12/29 04:11:16;;;;;;;4.75;2.72;;;;;;;4.50;85.12;96950.00;4997262;28;20046;-70
2020/12/29 04:13:53;;;;;;;3.72;2.10;;;;;;;4.39;85.20;96956.97;4997174;28;20488;-71
2020/12/29 04:16:22;;;;;;;4.80;2.00;;;;;;;4.26;85.13;96969.00;4997055;28;20049;-71
2020/12/29 04:18:50;;;;;;;3.93;2.20;;;;;;;4.18;85.82;96975.03;4997078;28;20052;-71
2020/12/29 04:21:18;;;;;;;3.55;2.00;;;;;;;4.16;85.68;96981.81;4996980;28;20054;-71
2020/12/29 04:23:47;;;;;;;3.65;2.03;;;;;;;4.12;85.94;97010.50;4997066;28;20046;-71
2020/12/29 04:26:15;;;;;;;;;;;;;;;4.09;85.88;97008.84;4997762;28;20077;-71
2020/12/29 04:28:44;;;;;;;4.03;2.10;;;;;;;4.06;86.47;97014.78;4996965;28;19925;-71
2020/12/29 04:31:13;;;;;;;3.83;2.03;;;;;;;4.05;85.90;97010.59;4996831;28;20046;-71
2020/12/29 04:33:41;;;;;;;4.13;1.90;;;;;;;4.02;86.22;97015.72;4996676;28;20440;-71
2020/12/29 04:36:09;;;;;;;3.97;2.00;;;;;;;4.00;86.95;97019.97;4995802;28;20303;-71
2020/12/29 04:38:38;;;;;;;4.32;2.22;;;;;;;3.97;86.44;97026.72;4996753;28;20042;-71
2020/12/29 04:41:07;;;;;;;4.22;2.00;;;;;;;3.93;86.87;97036.06;4996787;28;20050;-70
2020/12/29 04:43:35;;;;;;;4.22;2.03;;;;;;;3.92;86.81;97044.47;4996673;28;20077;-70
2020/12/29 04:46:05;;;;;;;5.18;2.58;;;;;;;3.94;86.86;97050.31;4996697;28;20046;-71
2020/12/29 04:48:34;;;;;;;4.07;2.22;;;;;;;3.96;87.52;97056.16;4996680;28;20058;-71
2020/12/29 04:51:03;;;;;;;3.63;2.00;;;;;;;3.93;86.65;97084.00;4996380;28;20038;-71
2020/12/29 04:53:33;;;;;;;3.78;2.30;;;;;;;3.90;86.91;97111.78;4996577;28;20046;-71
2020/12/29 04:56:05;;;;;;;4.95;2.20;;;;;;;3.89;87.79;97110.09;4996520;28;20050;-70
2020/12/29 04:58:37;;;;;;;4.88;2.25;;;;;;;3.87;87.71;97106.78;4996382;28;20061;-70
2020/12/29 05:01:07;;;;;;;4.00;2.20;;;;;;;3.86;87.45;97109.34;4996443;28;20093;-70
2020/12/29 05:03:41;;;;;;;5.45;2.75;;;;;;;3.83;87.61;97105.16;4996002;28;20500;-71
2020/12/29 05:06:09;;;;;;;7.28;3.00;;;;;;;3.80;88.03;97095.13;4996370;28;20515;-71
2020/12/29 05:08:37;;;;;;;6.03;2.90;;;;;;;3.78;87.41;97121.22;4996578;28;20135;-71
2020/12/29 05:11:05;;;;;;;6.20;3.15;;;;;;;3.78;87.93;97127.09;4994921;28;20045;-70
2020/12/29 05:13:33;;;;;;;4.90;2.58;;;;;;;3.79;88.27;97148.13;4996506;28;20047;-71
2020/12/29 05:16:02;;;;;;;5.60;3.25;;;;;;;3.82;88.24;97169.06;4996150;28;20054;-71
2020/12/29 05:18:30;;;;;;;5.18;2.80;;;;;;;3.79;87.58;97171.63;4996009;28;20042;-71
2020/12/29 05:20:57;;;;;;;4.63;2.90;;;;;;;3.84;88.06;97197.63;4996067;28;20130;-72
2020/12/29 05:23:25;;;;;;;6.03;3.10;;;;;;;3.85;87.89;97208.53;4995835;28;20057;-71
2020/12/29 05:25:53;;;;;;;6.90;3.08;;;;;;;3.85;87.74;97214.44;4995979;28;20054;-71
2020/12/29 05:28:21;;;;;;;5.50;3.17;;;;;;;3.82;88.10;97223.72;4995768;28;20042;-71
2020/12/29 05:30:54;;;;;;;6.22;3.28;;;;;;;3.82;88.34;97228.75;4995887;28;20093;-70
2020/12/29 05:33:27;;;;;;;6.13;3.35;;;;;;;3.80;88.32;97231.31;4978332;28;20077;-71
2020/12/29 05:35:56;;;;;;;7.33;3.50;;;;;;;3.81;88.49;97248.13;4995668;28;20058;-70
2020/12/29 05:38:24;;;;;;;7.38;3.67;;;;;;;3.78;88.83;97273.38;5011078;28;20031;-70
2020/12/29 05:40:52;;;;;;;7.72;3.83;;;;;;;3.78;89.23;97267.50;4995900;28;20397;-70
2020/12/29 05:43:25;;;;;;;7.40;3.80;;;;;;;3.77;89.15;97278.44;4995536;28;20130;-70
2020/12/29 05:45:54;;;;;;;8.50;4.35;;;;;;;3.75;89.48;97282.66;4995618;28;20050;-70
2020/12/29 05:48:22;;;;;;;7.90;4.53;;;;;;;3.77;89.54;97294.41;4978111;28;20043;-71
2020/12/29 05:50:50;;;;;;;8.63;4.63;;;;;;;3.79;88.98;97299.44;4995382;28;20046;-71
2020/12/29 05:53:39;;;;;;;8.98;4.50;;;;;;;3.70;89.58;97287.78;4973964;28;20077;-70
2020/12/29 05:56:09;;;;;;;7.72;4.03;;;;;;;3.80;89.23;97296.91;4973933;28;20047;-70
2020/12/29 05:58:38;;;;;;;6.85;3.90;;;;;;;3.72;89.09;97293.63;4973817;28;20043;-70
2020/12/29 06:01:06;;;;;;;9.20;4.55;;;;;;;3.78;89.44;97311.22;4973746;28;20118;-71
2020/12/29 06:03:34;;;;;;;7.63;4.22;;;;;;;3.77;89.07;97322.16;4973765;28;20058;-70
2020/12/29 06:06:06;;;;;;;7.50;4.18;;;;;;;3.72;88.82;97328.13;4973856;28;20055;-70
2020/12/29 06:08:36;;;;;;;8.93;4.00;;;;;;;3.62;89.00;97340.00;4973742;28;20575;-71
2020/12/29 06:11:05;;;;;;;10.60;4.82;;;;;;;3.53;89.67;97357.72;4973543;28;20574;-71
2020/12/29 06:13:52;;;;;;;9.90;4.30;;;;;;;3.42;89.74;97363.72;4973162;28;20057;-71
2020/12/29 06:16:24;;;;;;;8.68;4.28;;;;;;;3.29;89.42;97378.13;4916278;29;20052;-70
2020/12/29 06:18:59;;;;;;;8.13;4.03;;;;;;;3.32;89.37;97390.72;4916144;29;20060;-71
2020/12/29 06:21:29;;;;;;;8.75;4.20;;;;;;;3.28;89.67;97396.63;4916305;29;20048;-71
2020/12/29 06:24:01;;;;;;;10.15;4.50;;;;;;;3.23;88.81;97395.84;4915934;29;20135;-71
2020/12/29 06:26:33;;;;;;;8.55;4.60;;;;;;;3.20;89.48;97411.81;4916024;29;20503;-71
2020/12/29 06:29:03;;;;;;;7.75;4.28;;;;;;;3.14;89.16;97416.09;4915990;29;20059;-71
2020/12/29 06:31:32;;;;;;;8.60;4.55;;;;;;;3.05;89.42;97403.53;4931550;29;20534;-71
2020/12/29 06:34:02;;;;;;;8.98;4.40;;;;;;;2.96;90.05;97403.59;4934614;29;20058;-71
2020/12/29 06:36:38;;;;;;;14.38;6.55;;;;;;;2.88;89.90;97417.97;4934819;29;20624;-71
2020/12/29 06:39:07;;;;;;;13.32;6.55;;;;;;;2.85;89.65;97430.56;4934806;29;20520;-71
2020/12/29 06:41:36;;;;;;;11.20;5.95;;;;;;;2.89;89.30;97432.22;4934767;29;20048;-71
2020/12/29 06:44:04;;;;;;;10.25;5.38;;;;;;;2.91;90.02;97440.59;4934662;29;20068;-71
2020/12/29 06:46:32;;;;;;;10.77;5.82;;;;;;;2.93;89.81;97443.97;4934639;29;20048;-71
2020/12/29 06:49:19;;;;;;;10.88;5.45;;;;;;;2.89;89.02;97439.75;4934542;29;20048;-71
2020/12/29 06:51:48;;;;;;;9.07;5.25;;;;;;;2.89;89.47;97439.75;4934551;29;20056;-71
2020/12/29 06:54:20;;;;;;;8.38;4.70;;;;;;;2.67;89.61;97457.53;4967379;28;20057;-70
2020/12/29 06:56:56;;;;;;;8.70;4.90;;;;;;;2.37;89.59;97472.81;4975005;28;20058;-71
2020/12/29 06:59:37;;;;;;;8.52;4.65;;;;;;;2.36;89.84;97485.38;4974987;28;20126;-71
2020/12/29 07:02:13;;;;;;;9.57;4.83;;;;;;;2.36;89.59;97496.28;4975039;28;20043;-71
2020/12/29 07:04:48;;;;;;;9.82;5.00;;;;;;;2.37;90.00;97513.06;4974938;28;20051;-71
2020/12/29 07:07:22;;;;;;;9.77;5.03;;;;;;;2.53;89.91;97514.66;4974780;28;20113;-71
2020/12/29 07:09:50;;;;;;;9.40;5.38;;;;;;;2.70;89.07;97528.03;4974875;28;20452;-71
2020/12/29 07:12:18;;;;;;;10.45;5.25;;;;;;;3.09;89.38;97541.25;4974640;28;20050;-71
2020/12/29 07:14:53;;;;;;;8.77;4.68;;;;;;;3.59;88.27;97551.81;4974775;28;20047;-71
2020/12/29 07:17:25;;;;;;;10.98;5.15;;;;;;;3.93;88.79;97555.75;4974795;28;20071;-71
2020/12/29 07:19:55;;;;;;;10.68;5.43;;;;;;;5.64;88.19;97555.31;4974987;28;20122;-71
2020/12/29 07:22:22;;;;;;;;;;;;;;;7.31;81.37;97553.84;4975415;28;20047;-71
2020/12/29 07:24:54;;;;;;;8.13;4.53;;;;;;;7.83;75.82;97556.00;4974429;28;19929;-71
2020/12/29 07:27:22;;;;;;;9.15;4.68;;;;;;;6.92;76.48;97554.69;4978932;28;20055;-71
2020/12/29 07:29:52;;;;;;;7.18;4.65;;;;;;;7.94;72.37;97557.41;4978477;28;20043;-72
2020/12/29 07:32:22;;;;;;;8.05;4.28;;;;;;;9.00;69.70;97553.78;4978532;28;20121;-71
2020/12/29 07:34:50;;;;;;;8.90;4.68;;;;;;;8.32;68.97;97563.28;4988401;28;20492;-71
2020/12/29 07:37:20;;;;;;;7.78;4.18;;;;;;;6.45;72.91;97574.22;4997894;28;20046;-71
2020/12/29 07:39:48;;;;;;;10.73;4.90;;;;;;;5.66;75.44;97574.69;4997924;28;20054;-71
2020/12/29 07:44:59;;;;;;;9.75;5.15;;;;;;;5.78;76.95;97576.19;4937889;29;20502;-72
2020/12/29 07:47:27;;;;;;;9.90;5.75;;;;;;;6.98;75.89;97578.22;4938011;29;20127;-71
2020/12/29 07:49:55;;;;;;;8.52;5.07;;;;;;;9.22;69.18;97565.81;4937917;29;20067;-71
2020/12/29 07:52:24;;;;;;;10.13;5.18;;;;;;;9.81;65.65;97575.91;4937561;29;20461;-71
2020/12/29 07:54:57;;;;;;;12.27;5.07;;;;;;;9.02;65.31;97583.38;4937663;29;20051;-71
2020/12/29 07:57:26;;;;;;;10.27;4.85;;;;;;;6.32;71.44;97593.00;4937767;29;20588;-71
2020/12/29 07:59:53;;;;;;;12.13;5.60;;;;;;;5.42;74.55;97596.09;4937524;29;20079;-71
2020/12/29 08:02:21;;;;;;;13.23;7.50;;;;;;;5.17;76.42;97607.41;4937084;29;20604;-71
2020/12/29 08:04:49;;;;;;;11.68;6.30;;;;;;;5.83;75.22;97603.06;4937181;29;20039;-71
2020/12/29 08:07:17;;;;;;;11.68;6.80;;;;;;;5.24;76.39;97615.75;4936849;29;20142;-72
2020/12/29 08:09:45;;;;;;;8.63;4.50;;;;;;;5.07;76.90;97627.75;4937411;29;20126;-72
2020/12/29 08:12:15;;;;;;;8.57;4.47;;;;;;;5.30;77.12;97624.06;4936505;29;20051;-71
2020/12/29 08:14:44;;;;;;;6.85;3.80;;;;;;;5.82;76.26;97629.25;4937323;29;20158;-71
2020/12/29 08:17:12;;;;;;;7.70;4.03;;;;;;;6.00;75.86;97631.53;4937238;29;20781;-71
2020/12/29 08:19:40;;;;;;;5.78;3.40;;;;;;;6.14;75.15;97640.59;4937236;29;20131;-71
2020/12/29 08:22:09;;;;;;;5.57;2.95;;;;;;;6.18;75.57;97624.50;4966774;28;20055;-72
2020/12/29 08:24:39;;;;;;;6.97;4.15;;;;;;;6.39;75.46;97645.22;4997145;28;20136;-72
2020/12/29 08:27:06;;;;;;;9.38;4.63;;;;;;;6.51;75.02;97654.31;4997288;28;20558;-72
2020/12/29 08:29:34;;;;;;;7.50;4.07;;;;;;;6.65;75.49;97657.44;4996914;28;20046;-72
2020/12/29 08:32:09;;;;;;;9.55;5.15;;;;;;;6.67;74.63;97661.63;4996975;28;20181;-72
2020/12/29 08:34:39;;;;;;;8.75;4.40;;;;;;;6.90;73.91;97662.91;4996571;28;20062;-71
2020/12/29 08:37:08;;;;;;;7.53;4.07;;;;;;;6.89;73.40;97662.06;4996477;28;20137;-71
2020/12/29 08:39:50;;;;;;;15.32;6.82;;;;;;;7.04;73.95;97676.16;4996801;28;20407;-72
2020/12/29 08:42:19;;;;;;;7.80;4.15;;;;;;;7.15;73.83;97685.22;4996697;28;20050;-72
2020/12/29 08:44:47;;;;;;;6.95;3.97;;;;;;;7.25;73.31;97685.88;4996879;28;20155;-72
2020/12/29 08:47:16;;;;;;;20.30;8.32;;;;;;;7.25;73.45;97701.94;4996500;28;20042;-72
2020/12/29 08:49:44;;;;;;;7.90;4.05;;;;;;;7.36;73.18;97704.28;4996487;28;20130;-72
2020/12/29 08:52:11;;;;;;;6.07;3.20;;;;;;;7.59;72.59;97697.03;4996400;28;20046;-72
2020/12/29 08:54:39;;;;;;;6.90;3.72;;;;;;;7.69;72.54;97711.19;4996457;28;20472;-72
2020/12/29 08:57:07;;;;;;;6.22;3.05;;;;;;;7.62;71.28;97709.66;4996443;28;20050;-72
2020/12/29 08:59:37;;;;;;;5.90;3.33;;;;;;;7.47;71.33;97711.66;4996374;28;20401;-72
2020/12/29 09:02:06;;;;;;;5.05;2.85;;;;;;;7.68;70.50;97722.22;4996712;28;20558;-72
2020/12/29 09:04:37;;;;;;;7.53;3.60;;;;;;;7.57;70.77;97719.06;4996512;28;20049;-72
2020/12/29 09:07:07;;;;;;;6.05;3.22;;;;;;;7.84;69.81;97727.81;4996332;28;20074;-71
2020/12/29 09:09:36;;;;;;;5.45;3.13;;;;;;;8.07;69.71;97716.28;4996204;28;20050;-71
2020/12/29 09:12:11;;;;;;;7.45;3.47;;;;;;;8.14;70.02;97719.50;4988184;28;20041;-71
2020/12/29 09:14:49;;;;;;;7.75;3.10;;;;;;;8.32;71.07;97725.91;5015939;28;20411;-72
2020/12/29 09:17:17;;;;;;;6.70;3.20;;;;;;;8.21;68.86;97727.81;5015721;28;20526;-71
2020/12/29 09:20:03;;;;;;;5.25;2.85;;;;;;;8.13;68.54;97724.63;5015661;28;20104;-71
2020/12/29 09:22:33;;;;;;;6.15;3.15;;;;;;;8.25;67.86;97729.44;5012127;28;20057;-72
2020/12/29 09:25:02;;;;;;;4.23;2.10;;;;;;;8.34;68.47;97721.63;5015554;28;20551;-72
2020/12/29 09:27:31;;;;;;;5.27;3.37;;;;;;;8.51;67.71;97724.59;5015501;28;20053;-71
2020/12/29 09:30:12;;;;;;;5.03;2.92;;;;;;;8.71;67.82;97720.69;5015416;28;20069;-72
2020/12/29 09:32:40;;;;;;;3.58;2.33;;;;;;;8.67;67.50;97723.34;5001508;28;20049;-72
2020/12/29 09:37:53;;;;;;;5.45;2.67;;;;;;;8.73;67.38;97729.13;4996145;28;20511;-71
2020/12/29 09:40:22;;;;;;;6.20;3.25;;;;;;;8.98;67.46;97729.34;4995178;28;20415;-72
2020/12/29 09:42:51;;;;;;;7.40;2.90;;;;;;;8.90;66.49;97715.16;4994710;28;20049;-72
2020/12/29 09:45:19;;;;;;;5.32;2.30;;;;;;;8.48;65.00;97686.53;4995568;28;20054;-72
2020/12/29 09:47:48;;;;;;;4.68;2.20;;;;;;;8.73;65.45;97705.41;4994014;28;20137;-71
2020/12/29 09:50:16;;;;;;;5.05;2.40;;;;;;;8.87;65.94;97720.31;4994198;28;20049;-71
2020/12/29 09:52:44;;;;;;;4.65;2.20;;;;;;;8.72;64.33;97711.38;4994740;28;20046;-71
2020/12/29 09:55:13;;;;;;;4.30;2.33;;;;;;;8.91;65.04;97707.47;4995179;28;20436;-71
2020/12/29 09:57:41;;;;;;;4.00;2.13;;;;;;;9.04;64.60;97705.47;4995211;28;20074;-71
2020/12/29 10:00:09;;;;;;;3.58;1.98;;;;;;;9.02;62.83;97704.66;4995557;28;20575;-71
2020/12/29 10:02:40;;;;;;;4.05;2.05;;;;;;;9.18;62.97;97714.41;4994147;28;20062;-72
2020/12/29 10:05:08;;;;;;;5.53;2.20;;;;;;;8.74;64.09;97705.38;4995229;28;20043;-70
2020/12/29 10:07:36;;;;;;;4.70;1.60;;;;;;;8.67;65.12;97703.84;4994920;28;20481;-71
2020/12/29 10:10:04;;;;;;;3.63;1.90;;;;;;;8.71;64.61;97709.69;4994908;28;20105;-70
2020/12/29 10:12:33;;;;;;;4.00;1.60;;;;;;;8.20;65.94;97642.31;4994998;28;20042;-70
2020/12/29 10:15:16;;;;;;;3.30;1.67;;;;;;;8.69;65.56;97716.53;4995043;28;20126;-70
2020/12/29 10:17:44;;;;;;;5.10;2.20;;;;;;;8.74;65.31;97710.47;4954245;29;20050;-70
2020/12/29 10:20:12;;;;;;;3.95;2.22;;;;;;;8.90;64.74;97718.50;4954152;29;20081;-69
2020/12/29 10:22:41;;;;;;;4.50;1.80;;;;;;;9.10;64.32;97715.47;4954242;29;20059;-70
2020/12/29 10:25:10;;;;;;;3.72;1.83;;;;;;;9.16;63.05;97723.78;4954015;29;20162;-70
2020/12/29 10:27:39;;;;;;;4.63;2.10;;;;;;;9.15;63.48;97722.09;4954048;29;20040;-70
2020/12/29 10:30:06;;;;;;;3.90;1.90;;;;;;;9.29;63.84;97742.94;4940530;29;20050;-71
2020/12/29 10:32:34;;;;;;;6.65;2.10;;;;;;;9.54;63.61;97735.47;4934256;29;20043;-70
2020/12/29 10:35:01;;;;;;;3.60;1.90;;;;;;;9.32;63.24;97739.47;4934627;29;20153;-70
2020/12/29 10:37:31;;;;;;;4.50;2.20;;;;;;;9.43;63.45;97743.38;4934771;29;20059;-70
2020/12/29 10:39:58;;;;;;;4.43;2.08;;;;;;;9.60;62.78;97737.00;4934510;29;20051;-69
2020/12/29 10:42:27;;;;;;;4.40;1.80;;;;;;;9.74;63.63;97742.53;4933997;29;20110;-71
2020/12/29 10:44:56;;;;;;;5.38;1.95;;;;;;;9.72;62.69;97734.94;4934404;29;20048;-71
2020/12/29 10:47:23;;;;;;;4.50;2.05;;;;;;;9.57;62.09;97727.75;4934144;29;20098;-70
2020/12/29 10:49:51;;;;;;;2.53;1.50;;;;;;;9.29;62.84;97722.56;4934538;29;20052;-70
2020/12/29 10:52:19;;;;;;;6.18;2.08;;;;;;;9.13;64.41;97723.84;4934407;29;20126;-70
2020/12/29 10:54:47;;;;;;;3.08;1.65;;;;;;;9.28;63.92;97722.63;4944185;29;20046;-70
2020/12/29 10:57:15;;;;;;;7.25;1.98;;;;;;;9.41;64.12;97719.69;4955704;28;20055;-71
2020/12/29 10:59:42;;;;;;;3.70;1.70;;;;;;;9.51;64.40;97719.41;4955172;28;20077;-72
2020/12/29 11:02:11;;;;;;;3.03;1.40;;;;;;;9.15;64.09;97676.31;4955616;28;20051;-73
2020/12/29 11:04:39;;;;;;;4.78;1.95;;;;;;;9.07;64.27;97718.91;4955595;28;20115;-71
2020/12/29 11:07:09;;;;;;;3.38;1.60;;;;;;;9.27;64.30;97721.78;4955922;28;20142;-72
2020/12/29 11:09:37;;;;;;;2.75;1.55;;;;;;;9.27;65.06;97720.94;4955558;28;20085;-71
2020/12/29 11:12:05;;;;;;;3.35;1.90;;;;;;;9.62;64.65;97727.63;4955373;28;20052;-71
2020/12/29 11:14:33;;;;;;;3.85;1.17;;;;;;;9.71;63.75;97722.25;4955452;28;20074;-71
2020/12/29 11:17:01;;;;;;;3.55;1.60;;;;;;;9.96;63.56;97713.00;4955736;28;20043;-70
2020/12/29 11:19:44;;;;;;;6.00;1.70;;;;;;;10.12;64.53;97721.06;4955451;29;20058;-71
2020/12/29 11:22:12;;;;;;;3.75;1.92;;;;;;;10.18;64.27;97729.34;4955648;29;20048;-69
2020/12/29 11:24:40;;;;;;;3.38;1.58;;;;;;;10.13;62.96;97723.53;4955422;28;20082;-71
2020/12/29 11:27:08;;;;;;;3.35;1.42;;;;;;;10.09;63.78;97724.50;4955386;28;20044;-71
2020/12/29 11:29:35;;;;;;;3.88;1.52;;;;;;;10.03;63.28;97734.84;4955899;28;20058;-71
2020/12/29 11:32:04;;;;;;;3.80;1.70;;;;;;;10.06;63.18;97729.69;4955234;29;20532;-72
2020/12/29 11:34:31;;;;;;;5.38;2.33;;;;;;;9.99;63.72;97740.94;4966257;28;20054;-71
2020/12/29 11:37:00;;;;;;;3.83;1.45;;;;;;;10.08;63.14;97740.66;4993933;28;20524;-72
2020/12/29 11:39:27;;;;;;;3.08;1.55;;;;;;;10.29;62.74;97744.31;4994183;28;20463;-71
2020/12/29 11:41:55;;;;;;;2.75;1.10;;;;;;;10.09;63.08;97744.88;4993918;28;20511;-71
2020/12/29 11:44:23;;;;;;;3.20;1.65;;;;;;;10.11;63.55;97743.13;4993721;28;20046;-71
2020/12/29 11:46:51;;;;;;;4.10;2.03;;;;;;;9.99;63.46;97743.47;4992125;28;20051;-71
2020/12/29 11:49:18;;;;;;;7.22;2.85;;;;;;;9.68;64.63;97745.25;4993902;28;20452;-70
2020/12/29 11:51:47;;;;;;;4.97;1.77;;;;;;;9.43;65.66;97742.53;4991759;28;20101;-71
2020/12/29 11:54:16;;;;;;;4.03;1.88;;;;;;;9.25;66.42;97743.91;4993577;28;20482;-70
2020/12/29 11:56:49;;;;;;;10.85;4.13;;;;;;;9.18;66.97;97742.38;4993877;28;20042;-70
2020/12/29 11:59:16;;;;;;;5.32;2.05;;;;;;;9.07;66.35;97752.00;4993977;28;20042;-70